Wetterdaten: Woche 16.07.01 - 22.07.01 (KW29)
Datum Zeit Temperatur Luftfeuchte Luftdruck Regenmenge Wind Richtung Taupunkt Windchill
16.07.2001 00:00 11.3 C 96 % 1011.7 hPa 3.6 l/m 0.4 km/h (0 Bft) W-NW 10.7 C 11.3 C
16.07.2001 01:00 10.9 C 95 % 1011.8 hPa 1.9 l/m 0.0 km/h (0 Bft) N 10.1 C 10.9 C
16.07.2001 02:00 10.7 C 96 % 1011.7 hPa 0.0 l/m 0.1 km/h (0 Bft) N 10.1 C 10.7 C
16.07.2001 03:00 10.6 C 95 % 1011.1 hPa 0.0 l/m 0.0 km/h (0 Bft) N 9.8 C 10.6 C
16.07.2001 04:00 10.5 C 95 % 1011.7 hPa 1.0 l/m 0.3 km/h (0 Bft) O 9.8 C 10.5 C
16.07.2001 05:00 10.4 C 96 % 1010.8 hPa 0.0 l/m 0.1 km/h (0 Bft) N 9.7 C 10.4 C
16.07.2001 06:00 10.6 C 95 % 1011.8 hPa 0.0 l/m 0.2 km/h (0 Bft) NO 9.9 C 10.6 C
16.07.2001 07:00 11.1 C 92 % 1011.8 hPa 0.0 l/m 0.0 km/h (0 Bft) N 9.9 C 11.1 C
16.07.2001 08:00 11.6 C 89 % 1011.8 hPa 0.0 l/m 0.5 km/h (0 Bft) W-NW 9.9 C 11.6 C
16.07.2001 09:00 12.1 C 87 % 1011.8 hPa 0.0 l/m 0.3 km/h (0 Bft) W-NW 10.1 C 12.1 C
16.07.2001 10:00 13.7 C 79 % 1011.8 hPa 0.0 l/m 0.0 km/h (0 Bft) N 10.1 C 13.7 C
16.07.2001 11:00 15.0 C 70 % 1011.8 hPa 0.0 l/m 0.1 km/h (0 Bft) O-SO 9.7 C 15.0 C
16.07.2001 12:00 14.5 C 74 % 1011.8 hPa 0.0 l/m 0.2 km/h (0 Bft) NW 9.9 C 14.5 C
16.07.2001 13:00 15.0 C 72 % 1011.3 hPa 0.0 l/m 0.1 km/h (0 Bft) N 10.0 C 15.0 C
16.07.2001 14:00 14.4 C 78 % 1010.8 hPa 0.0 l/m 0.1 km/h (0 Bft) N 10.6 C 14.4 C
16.07.2001 15:00 14.7 C 77 % 1010.8 hPa 0.0 l/m 0.0 km/h (0 Bft) N 10.8 C 14.7 C
16.07.2001 16:00 14.8 C 76 % 1010.8 hPa 0.0 l/m 0.2 km/h (0 Bft) N 10.6 C 14.8 C
16.07.2001 17:00 15.1 C 75 % 1010.8 hPa 0.0 l/m 0.0 km/h (0 Bft) N 10.7 C 15.1 C
16.07.2001 18:00 15.4 C 74 % 1010.8 hPa 0.0 l/m 0.0 km/h (0 Bft) N 10.8 C 15.4 C
16.07.2001 19:00 15.4 C 74 % 1010.4 hPa 0.0 l/m 0.0 km/h (0 Bft) N 10.9 C 15.4 C
16.07.2001 20:00 14.7 C 76 % 1010.7 hPa 0.0 l/m 0.0 km/h (0 Bft) N 10.5 C 14.7 C
16.07.2001 21:00 13.3 C 84 % 1010.8 hPa 0.0 l/m 0.0 km/h (0 Bft) N 10.8 C 13.3 C
16.07.2001 22:00 12.2 C 91 % 1010.8 hPa 0.0 l/m 0.0 km/h (0 Bft) N 10.8 C 12.2 C
16.07.2001 23:00 12.2 C 93 % 1010.8 hPa 0.0 l/m 0.4 km/h (0 Bft) NO 11.1 C 12.2 C
17.07.2001 00:00 12.3 C 93 % 1010.2 hPa 0.0 l/m 0.0 km/h (0 Bft) N 11.2 C 12.3 C
17.07.2001 01:00 12.2 C 94 % 1009.7 hPa 0.0 l/m 0.0 km/h (0 Bft) N 11.3 C 12.2 C
17.07.2001 02:00 12.0 C 95 % 1009.7 hPa 0.0 l/m 1.3 km/h (1 Bft) O 11.2 C 12.0 C
17.07.2001 03:00 11.7 C 96 % 1008.8 hPa 0.0 l/m 0.2 km/h (0 Bft) O-SO 11.1 C 11.7 C
17.07.2001 04:00 11.6 C 96 % 1008.7 hPa 0.0 l/m 0.0 km/h (0 Bft) N 11.0 C 11.6 C
17.07.2001 05:00 11.8 C 96 % 1008.7 hPa 0.0 l/m 0.3 km/h (0 Bft) NO 11.2 C 11.8 C
17.07.2001 06:00 11.6 C 96 % 1008.7 hPa 0.0 l/m 1.2 km/h (1 Bft) NO 10.9 C 11.6 C
17.07.2001 07:00 12.2 C 91 % 1008.7 hPa 0.0 l/m 0.3 km/h (0 Bft) O-SO 10.7 C 12.2 C
17.07.2001 08:00 12.9 C 82 % 1008.1 hPa 0.0 l/m 0.3 km/h (0 Bft) W 10.0 C 12.9 C
17.07.2001 09:00 14.6 C 76 % 1007.6 hPa 0.0 l/m 0.6 km/h (0 Bft) W-NW 10.5 C 14.6 C
17.07.2001 10:00 17.1 C 65 % 1007.6 hPa 0.0 l/m 2.4 km/h (1 Bft) O-SO 10.5 C 17.1 C
17.07.2001 11:00 18.9 C 52 % 1007.3 hPa 0.0 l/m 2.5 km/h (1 Bft) O-SO 8.8 C 18.9 C
17.07.2001 12:00 20.1 C 50 % 1006.6 hPa 0.0 l/m 2.6 km/h (1 Bft) W 9.4 C 20.1 C
17.07.2001 13:00 22.1 C 41 % 1005.8 hPa 0.0 l/m 1.8 km/h (1 Bft) O-SO 8.3 C 22.1 C
17.07.2001 14:00 22.6 C 43 % 1005.5 hPa 0.0 l/m 4.7 km/h (1 Bft) O-SO 9.2 C 22.6 C
17.07.2001 15:00 22.1 C 44 % 1004.5 hPa 0.0 l/m 2.9 km/h (1 Bft) O-SO 8.9 C 22.1 C
17.07.2001 16:00 24.1 C 35 % 1004.5 hPa 0.0 l/m 2.8 km/h (1 Bft) O-SO 7.8 C 24.1 C
17.07.2001 17:00 23.9 C 36 % 1004.0 hPa 0.0 l/m 2.9 km/h (1 Bft) O 7.9 C 23.9 C
17.07.2001 18:00 22.3 C 42 % 1003.5 hPa 0.0 l/m 0.6 km/h (0 Bft) O 8.7 C 22.3 C
17.07.2001 19:00 21.3 C 48 % 1003.5 hPa 0.0 l/m 0.4 km/h (0 Bft) S-SW 9.9 C 21.3 C
17.07.2001 20:00 19.0 C 59 % 1003.5 hPa 0.0 l/m 1.6 km/h (1 Bft) O-SO 10.7 C 19.0 C
17.07.2001 21:00 17.6 C 71 % 1003.5 hPa 0.0 l/m 4.5 km/h (1 Bft) O-SO 12.3 C 17.6 C
17.07.2001 22:00 17.3 C 69 % 1003.9 hPa 0.0 l/m 1.3 km/h (1 Bft) O-SO 11.4 C 17.3 C
17.07.2001 23:00 16.0 C 76 % 1004.5 hPa 1.0 l/m 0.7 km/h (0 Bft) W 11.8 C 16.0 C
18.07.2001 00:00 14.4 C 92 % 1004.4 hPa 0.3 l/m 2.0 km/h (1 Bft) O-SO 13.1 C 14.4 C
18.07.2001 01:00 14.2 C 95 % 1003.5 hPa 0.0 l/m 2.7 km/h (1 Bft) O-SO 13.4 C 14.2 C
18.07.2001 02:00 13.8 C 95 % 1003.1 hPa 0.0 l/m 2.2 km/h (1 Bft) O-SO 13.0 C 13.8 C
18.07.2001 03:00 13.3 C 95 % 1003.3 hPa 0.0 l/m 2.1 km/h (1 Bft) O-SO 12.6 C 13.3 C
18.07.2001 04:00 13.6 C 96 % 1002.8 hPa 0.0 l/m 1.9 km/h (1 Bft) W-NW 13.0 C 13.6 C
18.07.2001 05:00 13.9 C 88 % 1003.6 hPa 0.3 l/m 16.2 km/h (3 Bft) NW 11.9 C 13.9 C
18.07.2001 06:00 12.7 C 87 % 1004.3 hPa 1.3 l/m 8.7 km/h (2 Bft) W-NW 10.6 C 12.7 C
18.07.2001 07:00 12.3 C 93 % 1004.5 hPa 1.0 l/m 1.0 km/h (0 Bft) O-SO 11.3 C 12.3 C
18.07.2001 08:00 12.5 C 94 % 1004.5 hPa 0.6 l/m 4.2 km/h (1 Bft) O-SO 11.5 C 12.5 C
18.07.2001 09:00 13.2 C 91 % 1004.5 hPa 0.0 l/m 2.2 km/h (1 Bft) O-SO 11.7 C 13.2 C
18.07.2001 10:00 13.3 C 90 % 1004.5 hPa 0.3 l/m 0.9 km/h (0 Bft) O-SO 11.7 C 13.3 C
18.07.2001 11:00 14.6 C 86 % 1003.8 hPa 0.0 l/m 3.0 km/h (1 Bft) O-SO 12.2 C 14.6 C
18.07.2001 12:00 16.1 C 78 % 1003.9 hPa 0.0 l/m 5.5 km/h (1 Bft) O-SO 12.1 C 16.1 C
18.07.2001 13:00 18.9 C 66 % 1003.2 hPa 0.0 l/m 9.9 km/h (2 Bft) O-SO 12.3 C 18.9 C
18.07.2001 14:00 21.1 C 56 % 1002.4 hPa 0.0 l/m 8.6 km/h (2 Bft) O 12.0 C 21.1 C
18.07.2001 15:00 21.6 C 55 % 1002.0 hPa 0.0 l/m 11.7 km/h (2 Bft) O-SO 12.1 C 21.6 C
18.07.2001 16:00 23.6 C 41 % 1001.4 hPa 0.0 l/m 10.9 km/h (2 Bft) W-SW 9.3 C 23.6 C
18.07.2001 17:00 23.0 C 36 % 1001.4 hPa 0.0 l/m 15.1 km/h (3 Bft) W 6.9 C 23.0 C
18.07.2001 18:00 22.8 C 37 % 1001.4 hPa 0.0 l/m 8.8 km/h (2 Bft) W-SW 7.2 C 22.8 C
18.07.2001 19:00 21.9 C 42 % 1001.4 hPa 0.0 l/m 5.9 km/h (2 Bft) W 8.5 C 21.9 C
18.07.2001 20:00 19.9 C 49 % 1001.4 hPa 0.0 l/m 1.6 km/h (1 Bft) W 8.8 C 19.9 C
18.07.2001 21:00 15.6 C 69 % 1001.4 hPa 0.0 l/m 4.8 km/h (1 Bft) O-SO 9.9 C 15.6 C
18.07.2001 22:00 14.2 C 75 % 1001.9 hPa 0.0 l/m 4.1 km/h (1 Bft) O-SO 9.9 C 14.2 C
18.07.2001 23:00 12.8 C 83 % 1002.6 hPa 0.0 l/m 1.9 km/h (1 Bft) O-SO 10.1 C 12.8 C
19.07.2001 00:00 13.0 C 83 % 1002.6 hPa 0.0 l/m 2.8 km/h (1 Bft) O-SO 10.1 C 13.0 C
19.07.2001 01:00 12.7 C 83 % 1002.4 hPa 0.0 l/m 4.8 km/h (1 Bft) O-SO 9.8 C 12.7 C
19.07.2001 02:00 12.3 C 85 % 1002.4 hPa 0.0 l/m 3.0 km/h (1 Bft) O-SO 9.8 C 12.3 C
19.07.2001 03:00 12.1 C 86 % 1002.4 hPa 0.0 l/m 0.2 km/h (0 Bft) O-SO 9.8 C 12.1 C
19.07.2001 04:00 11.2 C 91 % 1002.4 hPa 0.0 l/m 0.1 km/h (0 Bft) O-SO 9.7 C 11.2 C
19.07.2001 05:00 11.1 C 92 % 1002.4 hPa 0.0 l/m 0.2 km/h (0 Bft) O-SO 10.0 C 11.1 C
19.07.2001 06:00 11.2 C 93 % 1002.4 hPa 0.0 l/m 0.0 km/h (0 Bft) N 10.2 C 11.2 C
19.07.2001 07:00 11.7 C 92 % 1002.4 hPa 0.0 l/m 0.0 km/h (0 Bft) N 10.5 C 11.7 C
19.07.2001 08:00 13.0 C 87 % 1002.4 hPa 0.0 l/m 0.6 km/h (0 Bft) O-SO 10.9 C 13.0 C
19.07.2001 09:00 15.1 C 77 % 1002.4 hPa 0.0 l/m 2.2 km/h (1 Bft) O-SO 11.0 C 15.1 C
19.07.2001 10:00 17.1 C 69 % 1002.4 hPa 0.0 l/m 0.8 km/h (0 Bft) S-SO 11.3 C 17.1 C
19.07.2001 11:00 18.8 C 59 % 1002.4 hPa 0.0 l/m 2.9 km/h (1 Bft) O-SO 10.7 C 18.8 C
19.07.2001 12:00 19.6 C 57 % 1002.4 hPa 0.0 l/m 2.3 km/h (1 Bft) O-SO 10.7 C 19.6 C
19.07.2001 13:00 19.9 C 53 % 1002.4 hPa 0.0 l/m 0.2 km/h (0 Bft) N 10.0 C 19.9 C
19.07.2001 14:00 21.6 C 46 % 1002.4 hPa 0.0 l/m 4.1 km/h (1 Bft) W-NW 9.4 C 21.6 C
19.07.2001 15:00 22.5 C 42 % 1001.8 hPa 0.0 l/m 1.4 km/h (1 Bft) W-SW 8.9 C 22.5 C
19.07.2001 16:00 22.3 C 44 % 1001.4 hPa 0.0 l/m 0.2 km/h (0 Bft) N 9.5 C 22.3 C
19.07.2001 17:00 23.7 C 39 % 1001.4 hPa 0.0 l/m 3.8 km/h (1 Bft) W 8.9 C 23.7 C
19.07.2001 18:00 20.9 C 53 % 1001.4 hPa 0.0 l/m 2.6 km/h (1 Bft) SO 11.0 C 20.9 C
19.07.2001 19:00 19.8 C 59 % 1002.0 hPa 0.0 l/m 0.4 km/h (0 Bft) S 11.5 C 19.8 C
19.07.2001 20:00 18.9 C 61 % 1002.4 hPa 0.0 l/m 0.3 km/h (0 Bft) W 11.1 C 18.9 C
19.07.2001 21:00 18.0 C 62 % 1002.9 hPa 0.0 l/m 2.4 km/h (1 Bft) W-NW 10.5 C 18.0 C
19.07.2001 22:00 17.1 C 65 % 1003.5 hPa 0.0 l/m 11.1 km/h (2 Bft) W-NW 10.3 C 17.1 C
19.07.2001 23:00 16.5 C 64 % 1003.7 hPa 0.0 l/m 16.6 km/h (3 Bft) W-NW 9.7 C 16.5 C
20.07.2001 00:00 15.7 C 69 % 1004.5 hPa 0.0 l/m 1.1 km/h (1 Bft) W 10.0 C 15.7 C
20.07.2001 01:00 15.1 C 73 % 1004.5 hPa 0.0 l/m 2.4 km/h (1 Bft) W-NW 10.2 C 15.1 C
20.07.2001 02:00 14.9 C 73 % 1004.5 hPa 0.0 l/m 3.0 km/h (1 Bft) W-NW 10.2 C 14.9 C
20.07.2001 03:00 14.6 C 76 % 1005.5 hPa 0.0 l/m 2.5 km/h (1 Bft) W 10.4 C 14.6 C
20.07.2001 04:00 14.5 C 78 % 1005.6 hPa 0.0 l/m 2.8 km/h (1 Bft) W 10.6 C 14.5 C
20.07.2001 05:00 14.1 C 82 % 1005.6 hPa 0.0 l/m 2.5 km/h (1 Bft) W 11.1 C 14.1 C
20.07.2001 06:00 14.0 C 84 % 1005.6 hPa 0.0 l/m 3.8 km/h (1 Bft) W-NW 11.3 C 14.0 C
20.07.2001 07:00 14.1 C 83 % 1006.5 hPa 0.0 l/m 11.8 km/h (2 Bft) W-NW 11.1 C 14.1 C
20.07.2001 08:00 13.4 C 83 % 1007.2 hPa 0.0 l/m 18.2 km/h (3 Bft) W-NW 10.6 C 13.4 C
20.07.2001 09:00 13.8 C 79 % 1008.4 hPa 0.0 l/m 14.2 km/h (3 Bft) W-NW 10.2 C 13.8 C
20.07.2001 10:00 14.7 C 75 % 1009.0 hPa 0.0 l/m 18.4 km/h (3 Bft) W-NW 10.2 C 14.7 C
20.07.2001 11:00 15.1 C 71 % 1009.7 hPa 0.0 l/m 18.0 km/h (3 Bft) W-NW 9.9 C 15.1 C
20.07.2001 12:00 14.1 C 79 % 1010.5 hPa 0.6 l/m 17.0 km/h (3 Bft) W-NW 10.5 C 14.1 C
20.07.2001 13:00 13.6 C 84 % 1011.7 hPa 0.6 l/m 10.4 km/h (2 Bft) NW 10.9 C 13.6 C
20.07.2001 14:00 14.2 C 77 % 1011.8 hPa 0.0 l/m 18.3 km/h (3 Bft) W-NW 10.1 C 14.2 C
20.07.2001 15:00 15.5 C 68 % 1012.8 hPa 0.0 l/m 10.3 km/h (2 Bft) W-NW 9.5 C 15.5 C
20.07.2001 16:00 16.8 C 57 % 1012.8 hPa 0.0 l/m 17.2 km/h (3 Bft) W-NW 8.1 C 16.8 C
20.07.2001 17:00 14.6 C 75 % 1013.3 hPa 0.3 l/m 10.9 km/h (2 Bft) W-NW 10.1 C 14.6 C
20.07.2001 18:00 16.6 C 63 % 1013.9 hPa 0.0 l/m 17.8 km/h (3 Bft) W-NW 9.6 C 16.6 C
20.07.2001 19:00 15.7 C 68 % 1014.7 hPa 0.0 l/m 13.4 km/h (3 Bft) W-NW 9.7 C 15.7 C
20.07.2001 20:00 14.4 C 75 % 1015.3 hPa 0.0 l/m 9.4 km/h (2 Bft) W-NW 10.1 C 14.4 C
20.07.2001 21:00 13.7 C 81 % 1016.0 hPa 0.0 l/m 4.2 km/h (1 Bft) W-NW 10.4 C 13.7 C
20.07.2001 22:00 13.8 C 80 % 1017.0 hPa 0.0 l/m 2.3 km/h (1 Bft) W 10.3 C 13.8 C
20.07.2001 23:00 13.5 C 79 % 1017.0 hPa 0.0 l/m 0.0 km/h (0 Bft) N 10.0 C 13.5 C
21.07.2001 00:00 13.3 C 83 % 1017.8 hPa 0.0 l/m 0.3 km/h (0 Bft) W-NW 10.5 C 13.3 C
21.07.2001 01:00 13.4 C 82 % 1017.7 hPa 0.0 l/m 0.0 km/h (0 Bft) N 10.4 C 13.4 C
21.07.2001 02:00 13.5 C 81 % 1017.0 hPa 0.0 l/m 0.0 km/h (0 Bft) N 10.3 C 13.5 C
21.07.2001 03:00 13.3 C 81 % 1017.0 hPa 0.0 l/m 0.1 km/h (0 Bft) W-SW 10.2 C 13.3 C
21.07.2001 04:00 13.1 C 83 % 1017.4 hPa 0.0 l/m 0.0 km/h (0 Bft) N 10.3 C 13.1 C
21.07.2001 05:00 12.3 C 88 % 1017.0 hPa 0.0 l/m 0.2 km/h (0 Bft) SO 10.4 C 12.3 C
21.07.2001 06:00 11.3 C 92 % 1017.8 hPa 0.0 l/m 2.5 km/h (1 Bft) O 10.1 C 11.3 C
21.07.2001 07:00 12.2 C 90 % 1018.1 hPa 0.0 l/m 1.6 km/h (1 Bft) O-SO 10.6 C 12.2 C
21.07.2001 08:00 13.9 C 82 % 1018.1 hPa 0.0 l/m 1.2 km/h (1 Bft) O-SO 10.8 C 13.9 C
21.07.2001 09:00 15.5 C 73 % 1018.1 hPa 0.0 l/m 0.5 km/h (0 Bft) W-NW 10.7 C 15.5 C
21.07.2001 10:00 18.0 C 63 % 1017.6 hPa 0.0 l/m 1.7 km/h (1 Bft) O-SO 10.8 C 18.0 C
21.07.2001 11:00 19.9 C 52 % 1017.4 hPa 0.0 l/m 1.6 km/h (1 Bft) O-SO 9.7 C 19.9 C
21.07.2001 12:00 21.6 C 47 % 1017.0 hPa 0.0 l/m 3.6 km/h (1 Bft) O-SO 9.6 C 21.6 C
21.07.2001 13:00 23.2 C 42 % 1017.0 hPa 0.0 l/m 3.6 km/h (1 Bft) O-SO 9.4 C 23.2 C
21.07.2001 14:00 23.4 C 39 % 1016.5 hPa 0.0 l/m 1.0 km/h (0 Bft) O-SO 8.8 C 23.4 C
21.07.2001 15:00 24.8 C 36 % 1016.0 hPa 0.0 l/m 0.7 km/h (0 Bft) N 8.9 C 24.8 C
21.07.2001 16:00 25.4 C 36 % 1015.7 hPa 0.0 l/m 1.9 km/h (1 Bft) W 9.0 C 25.4 C
21.07.2001 17:00 26.2 C 35 % 1014.9 hPa 0.0 l/m 0.0 km/h (0 Bft) N 9.5 C 26.2 C
21.07.2001 18:00 26.0 C 34 % 1014.9 hPa 0.0 l/m 0.0 km/h (0 Bft) N 8.8 C 26.0 C
21.07.2001 19:00 24.5 C 36 % 1014.9 hPa 0.0 l/m 0.4 km/h (0 Bft) O 8.3 C 24.5 C
21.07.2001 20:00 21.1 C 51 % 1014.9 hPa 0.0 l/m 3.5 km/h (1 Bft) O-SO 10.6 C 21.1 C
21.07.2001 21:00 17.2 C 69 % 1014.9 hPa 0.0 l/m 0.8 km/h (0 Bft) O-SO 11.3 C 17.2 C
21.07.2001 22:00 14.7 C 80 % 1015.9 hPa 0.0 l/m 0.0 km/h (0 Bft) N 11.3 C 14.7 C
21.07.2001 23:00 13.5 C 86 % 1016.0 hPa 0.0 l/m 0.6 km/h (0 Bft) O-SO 11.1 C 13.5 C
22.07.2001 00:00 12.7 C 88 % 1016.0 hPa 0.0 l/m 1.9 km/h (1 Bft) O-SO 10.7 C 12.7 C
22.07.2001 01:00 11.9 C 91 % 1016.0 hPa 0.0 l/m 0.5 km/h (0 Bft) O-SO 10.5 C 11.9 C
22.07.2001 02:00 11.3 C 94 % 1016.0 hPa 0.0 l/m 0.0 km/h (0 Bft) N 10.3 C 11.3 C
22.07.2001 03:00 10.9 C 95 % 1016.0 hPa 0.0 l/m 0.4 km/h (0 Bft) O-SO 10.1 C 10.9 C
22.07.2001 04:00 10.4 C 95 % 1016.0 hPa 0.0 l/m 0.2 km/h (0 Bft) O-SO 9.7 C 10.4 C
22.07.2001 05:00 10.0 C 96 % 1016.0 hPa 0.0 l/m 0.0 km/h (0 Bft) N 9.5 C 10.0 C
22.07.2001 06:00 10.1 C 96 % 1016.0 hPa 0.0 l/m 0.0 km/h (0 Bft) N 9.5 C 10.1 C
22.07.2001 07:00 11.4 C 95 % 1016.0 hPa 0.0 l/m 0.0 km/h (0 Bft) N 10.5 C 11.4 C
22.07.2001 08:00 13.4 C 88 % 1016.0 hPa 0.0 l/m 0.1 km/h (0 Bft) W 11.4 C 13.4 C
22.07.2001 09:00 15.9 C 78 % 1016.0 hPa 0.0 l/m 0.3 km/h (0 Bft) W-NW 12.0 C 15.9 C
22.07.2001 10:00 19.3 C 65 % 1015.6 hPa 0.0 l/m 1.0 km/h (0 Bft) O-SO 12.5 C 19.3 C
22.07.2001 11:00 21.9 C 57 % 1014.9 hPa 0.0 l/m 1.2 km/h (1 Bft) W 13.0 C 21.9 C
22.07.2001 12:00 23.6 C 54 % 1014.8 hPa 0.0 l/m 4.7 km/h (1 Bft) O-SO 13.6 C 23.6 C
22.07.2001 13:00 25.7 C 48 % 1014.1 hPa 0.0 l/m 10.1 km/h (2 Bft) O-SO 13.7 C 25.7 C
22.07.2001 14:00 26.4 C 44 % 1013.9 hPa 0.0 l/m 7.4 km/h (2 Bft) O-SO 13.2 C 26.4 C
22.07.2001 15:00 26.6 C 41 % 1013.7 hPa 0.0 l/m 1.7 km/h (1 Bft) O-SO 12.2 C 26.6 C
22.07.2001 16:00 26.6 C 36 % 1012.8 hPa 0.0 l/m 5.6 km/h (1 Bft) O-SO 10.2 C 26.6 C
22.07.2001 17:00 26.6 C 33 % 1012.8 hPa 0.0 l/m 3.4 km/h (1 Bft) O-SO 9.1 C 26.6 C
22.07.2001 18:00 25.8 C 34 % 1012.2 hPa 0.0 l/m 4.3 km/h (1 Bft) O-SO 8.6 C 25.8 C
22.07.2001 19:00 25.0 C 41 % 1011.8 hPa 0.0 l/m 2.0 km/h (1 Bft) O-SO 10.9 C 25.0 C
22.07.2001 20:00 22.8 C 51 % 1011.8 hPa 0.0 l/m 2.4 km/h (1 Bft) O-SO 12.2 C 22.8 C
22.07.2001 21:00 19.4 C 68 % 1012.0 hPa 0.0 l/m 3.0 km/h (1 Bft) O-SO 13.2 C 19.4 C
22.07.2001 22:00 17.2 C 75 % 1012.8 hPa 0.0 l/m 2.4 km/h (1 Bft) O-SO 12.7 C 17.2 C
22.07.2001 23:00 15.8 C 79 % 1012.8 hPa 0.0 l/m 1.6 km/h (1 Bft) O-SO 12.2 C 15.8 C
Min-Datum _ 22.07.01 22.07.01 18.07.01 - 16.07.01 - 22.07.01 22.07.01
_ Min-Zeit 05:28 17:07 16:00 - 00:03 - 17:07 05:28
Minimum _ 9.8 C 28 % 1001.4 hPa - 0.0 km/h (0 Bft) - 6.3 C 9.8 C
Max-Datum _ 21.07.01 16.07.01 21.07.01 16.07.01 20.07.01 - 22.07.01 21.07.01
_ Max-Zeit 17:30 00:15 00:13 00:31 16:48 - 12:46 17:30
Maximum _ 27.1 C 97 % 1018.1 hPa 3.6 l/m 39.1 km/h
W-NW (6 Bft)
- 15.2 C 27.1 C
Durchschnitt _ 16.3 C 72 % 1009.2 hPa #12.9 l/m 3.3 km/h (1 Bft) O-SO 10.5 C 16.3 C

Durchschnitt Minimum Temp.15.5 C
Durchschnitt Maximum Temp.17.1 C
© Kaiko 2001